sensor_id;sensor_type;location;lat;lon;timestamp;temperature;humidity
40848;DHT22;26570;50.962;5.340;2024-03-07T00:01:42;3.90;99.90
40848;DHT22;26570;50.962;5.340;2024-03-07T00:04:27;3.90;99.90
40848;DHT22;26570;50.962;5.340;2024-03-07T00:07:15;4.00;99.90
40848;DHT22;26570;50.962;5.340;2024-03-07T00:10:01;3.90;99.90
40848;DHT22;26570;50.962;5.340;2024-03-07T00:12:48;3.80;99.90
40848;DHT22;26570;50.962;5.340;2024-03-07T00:15:33;3.80;99.90
40848;DHT22;26570;50.962;5.340;2024-03-07T00:18:18;3.70;99.90
40848;DHT22;26570;50.962;5.340;2024-03-07T00:21:04;3.70;99.90
40848;DHT22;26570;50.962;5.340;2024-03-07T00:23:49;3.60;99.90
40848;DHT22;26570;50.962;5.340;2024-03-07T00:26:35;3.60;99.90
40848;DHT22;26570;50.962;5.340;2024-03-07T00:29:20;3.70;99.90
40848;DHT22;26570;50.962;5.340;2024-03-07T00:32:06;3.90;99.90
40848;DHT22;26570;50.962;5.340;2024-03-07T00:34:56;4.10;99.90
40848;DHT22;26570;50.962;5.340;2024-03-07T00:37:44;4.00;99.90
40848;DHT22;26570;50.962;5.340;2024-03-07T00:40:30;3.90;99.90
40848;DHT22;26570;50.962;5.340;2024-03-07T00:43:16;3.80;99.90
40848;DHT22;26570;50.962;5.340;2024-03-07T00:46:01;3.80;99.90
40848;DHT22;26570;50.962;5.340;2024-03-07T00:48:46;3.80;99.90
40848;DHT22;26570;50.962;5.340;2024-03-07T00:51:31;3.70;99.90
40848;DHT22;26570;50.962;5.340;2024-03-07T00:54:17;3.70;99.90
40848;DHT22;26570;50.962;5.340;2024-03-07T00:57:02;3.80;99.90
40848;DHT22;26570;50.962;5.340;2024-03-07T00:59:49;3.80;99.90
40848;DHT22;26570;50.962;5.340;2024-03-07T01:02:35;3.80;99.90
40848;DHT22;26570;50.962;5.340;2024-03-07T01:05:20;3.80;99.90
40848;DHT22;26570;50.962;5.340;2024-03-07T01:08:05;3.80;99.90
40848;DHT22;26570;50.962;5.340;2024-03-07T01:10:51;3.80;99.90
40848;DHT22;26570;50.962;5.340;2024-03-07T01:13:38;3.70;99.90
40848;DHT22;26570;50.962;5.340;2024-03-07T01:16:23;3.70;99.90
40848;DHT22;26570;50.962;5.340;2024-03-07T01:19:09;3.60;99.90
40848;DHT22;26570;50.962;5.340;2024-03-07T01:21:54;3.80;99.90
40848;DHT22;26570;50.962;5.340;2024-03-07T01:24:39;3.70;99.90
40848;DHT22;26570;50.962;5.340;2024-03-07T01:27:25;3.70;99.90
40848;DHT22;26570;50.962;5.340;2024-03-07T01:30:11;3.60;99.90
40848;DHT22;26570;50.962;5.340;2024-03-07T01:32:57;3.70;99.90
40848;DHT22;26570;50.962;5.340;2024-03-07T01:35:42;3.70;99.90
40848;DHT22;26570;50.962;5.340;2024-03-07T01:38:27;3.80;99.90
40848;DHT22;26570;50.962;5.340;2024-03-07T01:41:12;3.80;99.90
40848;DHT22;26570;50.962;5.340;2024-03-07T01:43:58;3.80;99.90
40848;DHT22;26570;50.962;5.340;2024-03-07T01:47:06;3.70;99.90
40848;DHT22;26570;50.962;5.340;2024-03-07T01:49:52;3.80;99.90
40848;DHT22;26570;50.962;5.340;2024-03-07T01:52:40;3.80;99.90
40848;DHT22;26570;50.962;5.340;2024-03-07T01:55:27;3.90;99.90
40848;DHT22;26570;50.962;5.340;2024-03-07T01:58:14;3.90;99.90
40848;DHT22;26570;50.962;5.340;2024-03-07T02:01:02;3.80;99.90
40848;DHT22;26570;50.962;5.340;2024-03-07T02:03:48;3.80;99.90
40848;DHT22;26570;50.962;5.340;2024-03-07T02:06:34;3.70;99.90
40848;DHT22;26570;50.962;5.340;2024-03-07T02:09:19;3.80;99.90
40848;DHT22;26570;50.962;5.340;2024-03-07T02:12:05;3.80;99.90
40848;DHT22;26570;50.962;5.340;2024-03-07T02:14:51;3.80;99.90
40848;DHT22;26570;50.962;5.340;2024-03-07T02:17:37;3.90;99.90
40848;DHT22;26570;50.962;5.340;2024-03-07T02:20:46;3.90;99.90
40848;DHT22;26570;50.962;5.340;2024-03-07T02:23:31;4.00;99.90
40848;DHT22;26570;50.962;5.340;2024-03-07T02:26:17;3.90;99.90
40848;DHT22;26570;50.962;5.340;2024-03-07T02:29:25;3.90;99.90
40848;DHT22;26570;50.962;5.340;2024-03-07T02:32:11;3.80;99.90
40848;DHT22;26570;50.962;5.340;2024-03-07T02:35:18;3.70;99.90
40848;DHT22;26570;50.962;5.340;2024-03-07T02:38:06;3.80;99.90
40848;DHT22;26570;50.962;5.340;2024-03-07T02:40:51;3.80;99.90
40848;DHT22;26570;50.962;5.340;2024-03-07T02:43:36;3.80;99.90
40848;DHT22;26570;50.962;5.340;2024-03-07T02:46:23;3.80;99.90
40848;DHT22;26570;50.962;5.340;2024-03-07T02:49:31;3.70;99.90
40848;DHT22;26570;50.962;5.340;2024-03-07T02:52:16;3.70;99.90
40848;DHT22;26570;50.962;5.340;2024-03-07T02:55:29;3.70;99.90
40848;DHT22;26570;50.962;5.340;2024-03-07T02:58:15;3.60;99.90
40848;DHT22;26570;50.962;5.340;2024-03-07T03:01:01;3.70;99.90
40848;DHT22;26570;50.962;5.340;2024-03-07T03:04:16;3.90;99.90
40848;DHT22;26570;50.962;5.340;2024-03-07T03:07:02;3.80;99.90
40848;DHT22;26570;50.962;5.340;2024-03-07T03:09:47;3.80;99.90
40848;DHT22;26570;50.962;5.340;2024-03-07T03:12:33;3.80;99.90
40848;DHT22;26570;50.962;5.340;2024-03-07T03:15:19;3.70;99.90
40848;DHT22;26570;50.962;5.340;2024-03-07T03:18:05;3.80;99.90
40848;DHT22;26570;50.962;5.340;2024-03-07T03:20:52;4.20;99.90
40848;DHT22;26570;50.962;5.340;2024-03-07T03:23:38;3.70;99.90
40848;DHT22;26570;50.962;5.340;2024-03-07T03:26:25;3.70;99.90
40848;DHT22;26570;50.962;5.340;2024-03-07T03:29:11;3.70;99.90
40848;DHT22;26570;50.962;5.340;2024-03-07T03:31:57;3.70;99.90
40848;DHT22;26570;50.962;5.340;2024-03-07T03:34:42;3.70;99.90
40848;DHT22;26570;50.962;5.340;2024-03-07T03:37:27;3.70;99.90
40848;DHT22;26570;50.962;5.340;2024-03-07T03:40:16;3.80;99.90
40848;DHT22;26570;50.962;5.340;2024-03-07T03:43:01;3.70;99.90
40848;DHT22;26570;50.962;5.340;2024-03-07T03:45:47;3.80;99.90
40848;DHT22;26570;50.962;5.340;2024-03-07T03:48:32;3.90;99.90
40848;DHT22;26570;50.962;5.340;2024-03-07T03:51:20;3.90;99.90
40848;DHT22;26570;50.962;5.340;2024-03-07T03:54:29;3.90;99.90
40848;DHT22;26570;50.962;5.340;2024-03-07T03:57:39;3.90;99.90
40848;DHT22;26570;50.962;5.340;2024-03-07T04:00:24;3.90;99.90
40848;DHT22;26570;50.962;5.340;2024-03-07T04:03:09;3.90;99.90
40848;DHT22;26570;50.962;5.340;2024-03-07T04:05:55;3.80;99.90
40848;DHT22;26570;50.962;5.340;2024-03-07T04:08:40;3.80;99.90
40848;DHT22;26570;50.962;5.340;2024-03-07T04:11:26;3.80;99.90
40848;DHT22;26570;50.962;5.340;2024-03-07T04:14:11;3.80;99.90
40848;DHT22;26570;50.962;5.340;2024-03-07T04:16:56;3.80;99.90
40848;DHT22;26570;50.962;5.340;2024-03-07T04:19:42;3.70;99.90
40848;DHT22;26570;50.962;5.340;2024-03-07T04:22:28;3.60;99.90
40848;DHT22;26570;50.962;5.340;2024-03-07T04:25:13;3.60;99.90
40848;DHT22;26570;50.962;5.340;2024-03-07T04:27:59;3.60;99.90
40848;DHT22;26570;50.962;5.340;2024-03-07T04:30:44;3.60;99.90
40848;DHT22;26570;50.962;5.340;2024-03-07T04:33:30;3.60;99.90
40848;DHT22;26570;50.962;5.340;2024-03-07T04:36:15;3.60;99.90
40848;DHT22;26570;50.962;5.340;2024-03-07T04:39:00;3.60;99.90
40848;DHT22;26570;50.962;5.340;2024-03-07T04:41:45;3.60;99.90
40848;DHT22;26570;50.962;5.340;2024-03-07T04:44:36;3.50;99.90
40848;DHT22;26570;50.962;5.340;2024-03-07T04:47:47;3.60;99.90
40848;DHT22;26570;50.962;5.340;2024-03-07T04:50:33;3.70;99.90
40848;DHT22;26570;50.962;5.340;2024-03-07T04:53:18;3.80;99.90
40848;DHT22;26570;50.962;5.340;2024-03-07T04:56:03;4.00;99.90
40848;DHT22;26570;50.962;5.340;2024-03-07T04:58:48;4.00;99.90
40848;DHT22;26570;50.962;5.340;2024-03-07T05:01:34;4.10;99.90
40848;DHT22;26570;50.962;5.340;2024-03-07T05:04:20;4.10;99.90
40848;DHT22;26570;50.962;5.340;2024-03-07T05:07:05;4.20;99.90
40848;DHT22;26570;50.962;5.340;2024-03-07T05:09:50;4.30;99.90
40848;DHT22;26570;50.962;5.340;2024-03-07T05:12:35;4.40;99.90
40848;DHT22;26570;50.962;5.340;2024-03-07T05:15:22;4.50;99.90
40848;DHT22;26570;50.962;5.340;2024-03-07T05:18:10;4.60;99.90
40848;DHT22;26570;50.962;5.340;2024-03-07T05:20:56;4.60;99.90
40848;DHT22;26570;50.962;5.340;2024-03-07T05:23:53;4.60;99.90
40848;DHT22;26570;50.962;5.340;2024-03-07T05:27:00;4.60;99.90
40848;DHT22;26570;50.962;5.340;2024-03-07T05:29:45;4.70;99.90
40848;DHT22;26570;50.962;5.340;2024-03-07T05:32:30;4.80;99.90
40848;DHT22;26570;50.962;5.340;2024-03-07T05:35:15;4.80;99.90
40848;DHT22;26570;50.962;5.340;2024-03-07T05:38:01;4.30;99.90
40848;DHT22;26570;50.962;5.340;2024-03-07T05:40:49;4.80;99.90
40848;DHT22;26570;50.962;5.340;2024-03-07T05:43:35;4.80;99.90
40848;DHT22;26570;50.962;5.340;2024-03-07T05:46:23;4.90;99.90
40848;DHT22;26570;50.962;5.340;2024-03-07T05:49:09;5.00;99.90
40848;DHT22;26570;50.962;5.340;2024-03-07T05:51:54;5.00;99.90
40848;DHT22;26570;50.962;5.340;2024-03-07T05:54:39;5.10;99.90
40848;DHT22;26570;50.962;5.340;2024-03-07T05:57:25;5.00;99.90
40848;DHT22;26570;50.962;5.340;2024-03-07T06:00:11;4.90;99.90
40848;DHT22;26570;50.962;5.340;2024-03-07T06:02:59;5.00;99.90
40848;DHT22;26570;50.962;5.340;2024-03-07T06:05:47;4.90;99.90
40848;DHT22;26570;50.962;5.340;2024-03-07T06:08:33;4.90;99.90
40848;DHT22;26570;50.962;5.340;2024-03-07T06:11:18;4.90;99.90
40848;DHT22;26570;50.962;5.340;2024-03-07T06:14:06;4.90;99.90
40848;DHT22;26570;50.962;5.340;2024-03-07T06:16:52;5.00;99.90
40848;DHT22;26570;50.962;5.340;2024-03-07T06:20:07;5.00;99.90
40848;DHT22;26570;50.962;5.340;2024-03-07T06:28:18;5.10;99.90
40848;DHT22;26570;50.962;5.340;2024-03-07T06:31:07;5.10;99.90
40848;DHT22;26570;50.962;5.340;2024-03-07T06:33:55;5.00;99.90
40848;DHT22;26570;50.962;5.340;2024-03-07T06:36:40;5.00;99.90
40848;DHT22;26570;50.962;5.340;2024-03-07T06:39:26;4.90;99.90
40848;DHT22;26570;50.962;5.340;2024-03-07T06:42:11;5.00;99.90
40848;DHT22;26570;50.962;5.340;2024-03-07T06:44:57;5.00;99.90
40848;DHT22;26570;50.962;5.340;2024-03-07T06:47:42;4.90;99.90
40848;DHT22;26570;50.962;5.340;2024-03-07T06:50:27;4.90;99.90
40848;DHT22;26570;50.962;5.340;2024-03-07T06:53:13;5.10;99.90
40848;DHT22;26570;50.962;5.340;2024-03-07T06:55:58;5.00;99.90
40848;DHT22;26570;50.962;5.340;2024-03-07T06:58:44;5.00;99.90
40848;DHT22;26570;50.962;5.340;2024-03-07T07:01:30;5.10;99.90
40848;DHT22;26570;50.962;5.340;2024-03-07T07:04:15;5.10;99.90
40848;DHT22;26570;50.962;5.340;2024-03-07T07:07:00;5.40;99.90
40848;DHT22;26570;50.962;5.340;2024-03-07T07:09:45;5.70;99.90
40848;DHT22;26570;50.962;5.340;2024-03-07T07:12:53;5.90;99.90
40848;DHT22;26570;50.962;5.340;2024-03-07T07:15:39;6.40;99.90
40848;DHT22;26570;50.962;5.340;2024-03-07T07:18:25;6.90;99.90
40848;DHT22;26570;50.962;5.340;2024-03-07T07:21:10;7.40;99.90
40848;DHT22;26570;50.962;5.340;2024-03-07T07:23:55;7.90;99.90
40848;DHT22;26570;50.962;5.340;2024-03-07T07:26:40;8.10;99.90
40848;DHT22;26570;50.962;5.340;2024-03-07T07:29:25;8.70;99.90
40848;DHT22;26570;50.962;5.340;2024-03-07T07:32:11;9.20;99.90
40848;DHT22;26570;50.962;5.340;2024-03-07T07:34:57;9.60;99.90
40848;DHT22;26570;50.962;5.340;2024-03-07T07:37:47;9.70;99.90
40848;DHT22;26570;50.962;5.340;2024-03-07T07:40:36;10.10;99.90
40848;DHT22;26570;50.962;5.340;2024-03-07T07:43:21;10.90;99.90
40848;DHT22;26570;50.962;5.340;2024-03-07T07:46:06;10.90;99.90
40848;DHT22;26570;50.962;5.340;2024-03-07T07:48:51;11.00;99.90
40848;DHT22;26570;50.962;5.340;2024-03-07T07:51:36;11.40;99.90
40848;DHT22;26570;50.962;5.340;2024-03-07T07:54:21;11.90;99.90
40848;DHT22;26570;50.962;5.340;2024-03-07T07:57:06;12.40;99.90
40848;DHT22;26570;50.962;5.340;2024-03-07T07:59:51;12.80;99.90
40848;DHT22;26570;50.962;5.340;2024-03-07T08:02:37;12.90;99.90
40848;DHT22;26570;50.962;5.340;2024-03-07T08:05:23;13.00;99.90
40848;DHT22;26570;50.962;5.340;2024-03-07T08:08:09;13.50;99.90
40848;DHT22;26570;50.962;5.340;2024-03-07T08:10:56;13.70;99.90
40848;DHT22;26570;50.962;5.340;2024-03-07T08:13:41;13.70;99.90
40848;DHT22;26570;50.962;5.340;2024-03-07T08:16:26;13.90;99.90
40848;DHT22;26570;50.962;5.340;2024-03-07T08:19:11;14.20;99.90
40848;DHT22;26570;50.962;5.340;2024-03-07T08:22:18;14.40;99.90
40848;DHT22;26570;50.962;5.340;2024-03-07T08:25:04;14.40;99.90
40848;DHT22;26570;50.962;5.340;2024-03-07T08:27:54;14.20;99.90
40848;DHT22;26570;50.962;5.340;2024-03-07T08:30:40;13.60;99.90
40848;DHT22;26570;50.962;5.340;2024-03-07T08:33:48;13.50;99.90
40848;DHT22;26570;50.962;5.340;2024-03-07T08:36:33;13.40;99.90
40848;DHT22;26570;50.962;5.340;2024-03-07T08:39:40;13.50;99.90
40848;DHT22;26570;50.962;5.340;2024-03-07T08:42:25;13.60;99.90
40848;DHT22;26570;50.962;5.340;2024-03-07T08:45:10;13.90;99.90
40848;DHT22;26570;50.962;5.340;2024-03-07T08:47:56;13.90;99.90
40848;DHT22;26570;50.962;5.340;2024-03-07T08:50:42;13.60;99.90
40848;DHT22;26570;50.962;5.340;2024-03-07T08:53:27;13.40;99.90
40848;DHT22;26570;50.962;5.340;2024-03-07T08:56:12;13.10;99.90
40848;DHT22;26570;50.962;5.340;2024-03-07T08:58:57;13.00;99.90
40848;DHT22;26570;50.962;5.340;2024-03-07T09:01:43;12.80;99.90
40848;DHT22;26570;50.962;5.340;2024-03-07T09:04:28;13.00;99.90
40848;DHT22;26570;50.962;5.340;2024-03-07T09:07:15;13.00;99.90
40848;DHT22;26570;50.962;5.340;2024-03-07T09:10:02;12.70;99.90
40848;DHT22;26570;50.962;5.340;2024-03-07T09:12:51;12.70;99.90
40848;DHT22;26570;50.962;5.340;2024-03-07T09:15:36;12.90;99.90
40848;DHT22;26570;50.962;5.340;2024-03-07T09:18:21;12.80;99.90
40848;DHT22;26570;50.962;5.340;2024-03-07T09:21:08;12.90;99.90
40848;DHT22;26570;50.962;5.340;2024-03-07T09:24:16;13.00;99.90
40848;DHT22;26570;50.962;5.340;2024-03-07T09:27:01;13.20;99.90
40848;DHT22;26570;50.962;5.340;2024-03-07T09:29:47;13.30;99.90
40848;DHT22;26570;50.962;5.340;2024-03-07T09:32:55;13.60;99.90
40848;DHT22;26570;50.962;5.340;2024-03-07T09:35:40;13.70;99.90
40848;DHT22;26570;50.962;5.340;2024-03-07T09:38:25;14.00;99.90
40848;DHT22;26570;50.962;5.340;2024-03-07T09:41:14;13.90;99.90
40848;DHT22;26570;50.962;5.340;2024-03-07T09:44:01;13.90;99.90
40848;DHT22;26570;50.962;5.340;2024-03-07T09:46:48;14.00;99.90
40848;DHT22;26570;50.962;5.340;2024-03-07T09:49:34;13.80;99.90
40848;DHT22;26570;50.962;5.340;2024-03-07T09:52:24;13.50;99.90
40848;DHT22;26570;50.962;5.340;2024-03-07T09:55:11;13.30;99.90
40848;DHT22;26570;50.962;5.340;2024-03-07T09:57:58;13.20;99.90
40848;DHT22;26570;50.962;5.340;2024-03-07T10:00:46;13.30;99.90
40848;DHT22;26570;50.962;5.340;2024-03-07T10:03:35;13.20;99.90
40848;DHT22;26570;50.962;5.340;2024-03-07T10:06:20;13.40;99.90
40848;DHT22;26570;50.962;5.340;2024-03-07T10:09:29;13.30;99.90
40848;DHT22;26570;50.962;5.340;2024-03-07T10:12:17;13.50;99.90
40848;DHT22;26570;50.962;5.340;2024-03-07T10:15:04;13.40;99.90
40848;DHT22;26570;50.962;5.340;2024-03-07T10:17:58;13.20;99.90
40848;DHT22;26570;50.962;5.340;2024-03-07T10:20:43;13.10;99.90
40848;DHT22;26570;50.962;5.340;2024-03-07T10:23:30;13.00;99.90
40848;DHT22;26570;50.962;5.340;2024-03-07T10:26:15;12.80;99.90
40848;DHT22;26570;50.962;5.340;2024-03-07T10:29:02;12.90;99.90
40848;DHT22;26570;50.962;5.340;2024-03-07T10:31:51;12.80;99.90
40848;DHT22;26570;50.962;5.340;2024-03-07T10:34:58;13.00;99.90
40848;DHT22;26570;50.962;5.340;2024-03-07T10:38:21;13.00;99.90
40848;DHT22;26570;50.962;5.340;2024-03-07T10:41:28;12.80;99.90
40848;DHT22;26570;50.962;5.340;2024-03-07T10:44:45;12.80;99.90
40848;DHT22;26570;50.962;5.340;2024-03-07T10:47:33;12.60;99.90
40848;DHT22;26570;50.962;5.340;2024-03-07T10:54:13;12.70;99.90
40848;DHT22;26570;50.962;5.340;2024-03-07T10:57:35;12.40;99.90
40848;DHT22;26570;50.962;5.340;2024-03-07T11:00:28;12.10;99.90
40848;DHT22;26570;50.962;5.340;2024-03-07T11:03:20;11.90;99.90
40848;DHT22;26570;50.962;5.340;2024-03-07T11:06:06;12.10;99.90
40848;DHT22;26570;50.962;5.340;2024-03-07T11:08:57;12.20;99.90
40848;DHT22;26570;50.962;5.340;2024-03-07T11:11:46;12.20;99.90
40848;DHT22;26570;50.962;5.340;2024-03-07T11:14:32;12.20;99.90
40848;DHT22;26570;50.962;5.340;2024-03-07T11:17:20;12.40;99.90
40848;DHT22;26570;50.962;5.340;2024-03-07T11:20:37;12.50;99.90
40848;DHT22;26570;50.962;5.340;2024-03-07T11:23:52;12.30;99.90
40848;DHT22;26570;50.962;5.340;2024-03-07T11:26:57;12.10;99.90
40848;DHT22;26570;50.962;5.340;2024-03-07T11:29:50;12.30;99.90
40848;DHT22;26570;50.962;5.340;2024-03-07T11:32:38;12.40;99.90
40848;DHT22;26570;50.962;5.340;2024-03-07T11:35:33;12.30;99.90
40848;DHT22;26570;50.962;5.340;2024-03-07T11:38:31;12.30;99.90
40848;DHT22;26570;50.962;5.340;2024-03-07T11:41:46;12.40;99.90
40848;DHT22;26570;50.962;5.340;2024-03-07T11:44:36;12.20;99.90
40848;DHT22;26570;50.962;5.340;2024-03-07T11:47:38;12.20;99.90
40848;DHT22;26570;50.962;5.340;2024-03-07T11:50:27;12.10;99.90
40848;DHT22;26570;50.962;5.340;2024-03-07T11:53:12;12.00;99.90
40848;DHT22;26570;50.962;5.340;2024-03-07T11:55:58;12.00;99.90
40848;DHT22;26570;50.962;5.340;2024-03-07T11:58:44;12.10;99.90
40848;DHT22;26570;50.962;5.340;2024-03-07T12:01:30;11.80;99.90
40848;DHT22;26570;50.962;5.340;2024-03-07T12:04:48;11.40;99.90
40848;DHT22;26570;50.962;5.340;2024-03-07T12:07:59;11.50;99.90
40848;DHT22;26570;50.962;5.340;2024-03-07T12:10:48;11.70;99.90
40848;DHT22;26570;50.962;5.340;2024-03-07T12:13:56;11.70;99.90
40848;DHT22;26570;50.962;5.340;2024-03-07T12:17:15;12.00;99.90
40848;DHT22;26570;50.962;5.340;2024-03-07T12:20:03;12.00;99.90
40848;DHT22;26570;50.962;5.340;2024-03-07T12:23:08;12.20;99.90
40848;DHT22;26570;50.962;5.340;2024-03-07T12:27:12;12.60;99.90
40848;DHT22;26570;50.962;5.340;2024-03-07T12:29:57;12.80;99.90
40848;DHT22;26570;50.962;5.340;2024-03-07T12:32:49;12.90;99.90
40848;DHT22;26570;50.962;5.340;2024-03-07T12:35:57;12.60;99.90
40848;DHT22;26570;50.962;5.340;2024-03-07T12:38:55;12.80;99.90
40848;DHT22;26570;50.962;5.340;2024-03-07T12:41:51;12.90;99.90
40848;DHT22;26570;50.962;5.340;2024-03-07T12:44:41;13.00;99.90
40848;DHT22;26570;50.962;5.340;2024-03-07T12:48:07;13.20;99.90
40848;DHT22;26570;50.962;5.340;2024-03-07T12:50:53;13.20;99.90
40848;DHT22;26570;50.962;5.340;2024-03-07T12:53:38;13.30;99.90
40848;DHT22;26570;50.962;5.340;2024-03-07T12:56:26;13.30;99.90
40848;DHT22;26570;50.962;5.340;2024-03-07T12:59:12;13.30;99.90
40848;DHT22;26570;50.962;5.340;2024-03-07T13:02:20;13.50;99.90
40848;DHT22;26570;50.962;5.340;2024-03-07T13:05:43;13.40;99.90
40848;DHT22;26570;50.962;5.340;2024-03-07T13:08:47;13.20;99.90
40848;DHT22;26570;50.962;5.340;2024-03-07T13:11:37;13.30;99.90
40848;DHT22;26570;50.962;5.340;2024-03-07T13:14:56;13.40;99.90
40848;DHT22;26570;50.962;5.340;2024-03-07T13:17:46;13.50;99.90
40848;DHT22;26570;50.962;5.340;2024-03-07T13:20:46;13.20;99.90
40848;DHT22;26570;50.962;5.340;2024-03-07T13:24:08;13.20;99.90
40848;DHT22;26570;50.962;5.340;2024-03-07T13:26:56;13.20;99.90
40848;DHT22;26570;50.962;5.340;2024-03-07T13:30:13;13.10;99.90
40848;DHT22;26570;50.962;5.340;2024-03-07T13:33:29;13.30;99.90
40848;DHT22;26570;50.962;5.340;2024-03-07T13:36:36;13.60;99.90
40848;DHT22;26570;50.962;5.340;2024-03-07T13:39:31;13.40;99.90
40848;DHT22;26570;50.962;5.340;2024-03-07T13:42:19;13.30;99.90
40848;DHT22;26570;50.962;5.340;2024-03-07T13:45:08;13.30;99.90
40848;DHT22;26570;50.962;5.340;2024-03-07T13:48:34;13.60;99.90
40848;DHT22;26570;50.962;5.340;2024-03-07T13:51:21;13.80;99.90
40848;DHT22;26570;50.962;5.340;2024-03-07T13:54:06;13.50;99.90
40848;DHT22;26570;50.962;5.340;2024-03-07T13:57:35;13.60;99.90
40848;DHT22;26570;50.962;5.340;2024-03-07T14:17:05;13.50;99.90
40848;DHT22;26570;50.962;5.340;2024-03-07T14:27:30;13.70;99.90
40848;DHT22;26570;50.962;5.340;2024-03-07T14:30:50;13.70;99.90
40848;DHT22;26570;50.962;5.340;2024-03-07T14:34:55;13.60;99.90
40848;DHT22;26570;50.962;5.340;2024-03-07T14:40:44;13.80;99.90
40848;DHT22;26570;50.962;5.340;2024-03-07T14:43:40;13.40;99.90
40848;DHT22;26570;50.962;5.340;2024-03-07T14:46:26;13.00;99.90
40848;DHT22;26570;50.962;5.340;2024-03-07T14:49:14;13.30;99.90
40848;DHT22;26570;50.962;5.340;2024-03-07T14:52:27;13.40;99.90
40848;DHT22;26570;50.962;5.340;2024-03-07T14:55:14;13.50;99.90
40848;DHT22;26570;50.962;5.340;2024-03-07T14:58:00;13.40;99.90
40848;DHT22;26570;50.962;5.340;2024-03-07T15:00:47;13.30;99.90
40848;DHT22;26570;50.962;5.340;2024-03-07T15:03:51;13.30;99.90
40848;DHT22;26570;50.962;5.340;2024-03-07T15:06:38;13.20;99.90
40848;DHT22;26570;50.962;5.340;2024-03-07T15:09:24;13.20;99.90
40848;DHT22;26570;50.962;5.340;2024-03-07T15:12:12;12.90;99.90
40848;DHT22;26570;50.962;5.340;2024-03-07T15:14:58;13.00;99.90
40848;DHT22;26570;50.962;5.340;2024-03-07T15:17:43;13.00;99.90
40848;DHT22;26570;50.962;5.340;2024-03-07T15:20:30;12.80;99.90
40848;DHT22;26570;50.962;5.340;2024-03-07T15:23:15;12.90;99.90
40848;DHT22;26570;50.962;5.340;2024-03-07T15:26:01;13.00;99.90
40848;DHT22;26570;50.962;5.340;2024-03-07T15:29:12;13.20;99.90
40848;DHT22;26570;50.962;5.340;2024-03-07T15:31:57;13.20;99.90
40848;DHT22;26570;50.962;5.340;2024-03-07T15:35:11;13.30;99.90
40848;DHT22;26570;50.962;5.340;2024-03-07T15:37:59;13.30;99.90
40848;DHT22;26570;50.962;5.340;2024-03-07T15:40:45;13.40;99.90
40848;DHT22;26570;50.962;5.340;2024-03-07T15:43:32;13.20;99.90
40848;DHT22;26570;50.962;5.340;2024-03-07T15:46:18;12.90;99.90
40848;DHT22;26570;50.962;5.340;2024-03-07T15:49:03;13.00;99.90
40848;DHT22;26570;50.962;5.340;2024-03-07T15:51:48;12.80;99.90
40848;DHT22;26570;50.962;5.340;2024-03-07T15:54:39;12.70;99.90
40848;DHT22;26570;50.962;5.340;2024-03-07T15:57:24;12.50;99.90
40848;DHT22;26570;50.962;5.340;2024-03-07T16:00:09;12.50;99.90
40848;DHT22;26570;50.962;5.340;2024-03-07T16:03:31;12.40;99.90
40848;DHT22;26570;50.962;5.340;2024-03-07T16:07:02;11.90;99.90
40848;DHT22;26570;50.962;5.340;2024-03-07T16:09:50;11.80;99.90
40848;DHT22;26570;50.962;5.340;2024-03-07T16:13:04;11.90;99.90
40848;DHT22;26570;50.962;5.340;2024-03-07T16:16:14;11.90;99.90
40848;DHT22;26570;50.962;5.340;2024-03-07T16:19:00;12.10;99.90
40848;DHT22;26570;50.962;5.340;2024-03-07T16:21:46;12.00;99.90
40848;DHT22;26570;50.962;5.340;2024-03-07T16:24:34;12.10;99.90
40848;DHT22;26570;50.962;5.340;2024-03-07T16:27:28;12.00;99.90
40848;DHT22;26570;50.962;5.340;2024-03-07T16:30:20;11.70;99.90
40848;DHT22;26570;50.962;5.340;2024-03-07T16:33:05;11.50;99.90
40848;DHT22;26570;50.962;5.340;2024-03-07T16:35:51;11.50;99.90
40848;DHT22;26570;50.962;5.340;2024-03-07T16:38:36;11.50;99.90
40848;DHT22;26570;50.962;5.340;2024-03-07T16:45:59;11.30;99.90
40848;DHT22;26570;50.962;5.340;2024-03-07T16:48:46;11.40;99.90
40848;DHT22;26570;50.962;5.340;2024-03-07T16:51:31;11.00;99.90
40848;DHT22;26570;50.962;5.340;2024-03-07T16:54:16;10.80;99.90
40848;DHT22;26570;50.962;5.340;2024-03-07T16:57:01;10.90;99.90
40848;DHT22;26570;50.962;5.340;2024-03-07T16:59:46;11.00;99.90
40848;DHT22;26570;50.962;5.340;2024-03-07T17:02:33;10.80;99.90
40848;DHT22;26570;50.962;5.340;2024-03-07T17:05:18;10.80;99.90
40848;DHT22;26570;50.962;5.340;2024-03-07T17:08:04;10.80;99.90
40848;DHT22;26570;50.962;5.340;2024-03-07T17:10:50;10.50;99.90
40848;DHT22;26570;50.962;5.340;2024-03-07T17:13:37;10.40;99.90
40848;DHT22;26570;50.962;5.340;2024-03-07T17:16:23;10.30;99.90
40848;DHT22;26570;50.962;5.340;2024-03-07T17:23:42;10.10;99.90
40848;DHT22;26570;50.962;5.340;2024-03-07T17:26:53;10.00;99.90
40848;DHT22;26570;50.962;5.340;2024-03-07T17:29:40;9.90;99.90
40848;DHT22;26570;50.962;5.340;2024-03-07T17:32:25;9.90;99.90
40848;DHT22;26570;50.962;5.340;2024-03-07T17:35:13;9.70;99.90
40848;DHT22;26570;50.962;5.340;2024-03-07T17:37:58;9.70;99.90
40848;DHT22;26570;50.962;5.340;2024-03-07T17:40:45;9.60;99.90
40848;DHT22;26570;50.962;5.340;2024-03-07T17:43:30;9.50;99.90
40848;DHT22;26570;50.962;5.340;2024-03-07T17:46:15;9.30;99.90
40848;DHT22;26570;50.962;5.340;2024-03-07T17:49:04;9.30;99.90
40848;DHT22;26570;50.962;5.340;2024-03-07T17:52:11;9.40;99.90
40848;DHT22;26570;50.962;5.340;2024-03-07T17:54:59;9.40;99.90
40848;DHT22;26570;50.962;5.340;2024-03-07T17:57:48;9.20;99.90
40848;DHT22;26570;50.962;5.340;2024-03-07T18:00:37;9.20;99.90
40848;DHT22;26570;50.962;5.340;2024-03-07T18:03:31;9.00;99.90
40848;DHT22;26570;50.962;5.340;2024-03-07T18:06:20;9.10;99.90
40848;DHT22;26570;50.962;5.340;2024-03-07T18:09:07;9.10;99.90
40848;DHT22;26570;50.962;5.340;2024-03-07T18:12:11;9.00;99.90
40848;DHT22;26570;50.962;5.340;2024-03-07T18:15:23;8.90;99.90
40848;DHT22;26570;50.962;5.340;2024-03-07T18:18:12;8.90;99.90
40848;DHT22;26570;50.962;5.340;2024-03-07T18:21:01;8.80;99.90
40848;DHT22;26570;50.962;5.340;2024-03-07T18:23:46;8.90;99.90
40848;DHT22;26570;50.962;5.340;2024-03-07T18:26:35;8.80;99.90
40848;DHT22;26570;50.962;5.340;2024-03-07T18:29:24;8.60;99.90
40848;DHT22;26570;50.962;5.340;2024-03-07T18:32:10;8.50;99.90
40848;DHT22;26570;50.962;5.340;2024-03-07T18:34:55;8.40;99.90
40848;DHT22;26570;50.962;5.340;2024-03-07T18:38:03;8.40;99.90
40848;DHT22;26570;50.962;5.340;2024-03-07T18:40:52;8.70;99.90
40848;DHT22;26570;50.962;5.340;2024-03-07T18:44:00;8.50;99.90
40848;DHT22;26570;50.962;5.340;2024-03-07T18:46:46;8.60;99.90
40848;DHT22;26570;50.962;5.340;2024-03-07T18:49:35;8.60;99.90
40848;DHT22;26570;50.962;5.340;2024-03-07T18:52:49;8.60;99.90
40848;DHT22;26570;50.962;5.340;2024-03-07T18:55:38;8.50;99.90